Bernard, Maine
Current Conditions -  °F | °C
As of 4:35 PM on Saturday 25 Oct 2014 (Local Time) from KBHB Reporting Station
Clear Clear  
Wind Chill: 55°   Ceiling: Unl
Heat Index: 55°   Visibility: 10mi
Dew Point: 43°   Wind: 12mph
Humidity: 63%   Direction: 200°SSW
Pressure: 29.56"   Gusts: NA
Location:  44.24°N, 68.36°W
Report Text: KBHB 252035Z AUTO 20010KT 10SM CLR 13/06 A2956 RMK AO1
Loading
Personal Weather Stations






























Interactive Weather Map
Tropical Storm Tracking
New forecast layout! Learn more

10-Day Weather Forecast

Advertisements
Track Severe Weather on mobile